Time,TemperatureF,DewpointF,PressureIn,WindDirection,WindDirectionDegrees,WindSpeedMPH,WindSpeedGustMPH,Humidity,HourlyPrecipIn,Conditions,Clouds,dailyrainin,SoftwareType,DateUTC
2013-02-17 00:00:00,32.7,31.2,29.94,West,271,3.0,3.0,94,0.00,,,0.24,Wunderground v.1.15,2013-02-17 05:00:00,
2013-02-17 00:05:00,32.8,31.3,29.94,NW,321,3.0,3.0,94,0.00,,,0.00,Wunderground v.1.15,2013-02-17 05:05:00,
2013-02-17 00:15:00,32.9,30.8,29.93,WNW,284,3.0,3.0,92,0.00,,,0.00,Wunderground v.1.15,2013-02-17 05:15:00,
2013-02-17 00:20:00,33.0,30.4,29.94,WNW,300,3.0,3.0,90,0.00,,,0.00,Wunderground v.1.15,2013-02-17 05:20:00,
2013-02-17 00:30:00,33.0,30.4,29.94,WNW,284,4.0,4.0,90,0.00,,,0.00,Wunderground v.1.15,2013-02-17 05:30:00,
2013-02-17 00:40:00,32.8,30.2,29.95,NW,304,3.0,3.0,90,0.00,,,0.00,Wunderground v.1.15,2013-02-17 05:40:00,
2013-02-17 00:45:00,32.8,30.5,29.95,WNW,302,2.0,3.0,91,0.00,,,0.00,Wunderground v.1.15,2013-02-17 05:45:00,
2013-02-17 00:55:00,32.5,30.4,29.96,WSW,254,2.0,4.0,92,0.00,,,0.00,Wunderground v.1.15,2013-02-17 05:55:00,
2013-02-17 01:00:00,32.5,30.4,29.95,NW,318,2.0,3.0,92,0.00,,,0.00,Wunderground v.1.15,2013-02-17 06:00:00,
2013-02-17 01:10:00,32.4,30.3,29.96,SW,234,3.0,5.0,92,0.00,,,0.00,Wunderground v.1.15,2013-02-17 06:10:00,
2013-02-17 01:15:00,32.3,30.2,29.96,West,278,3.0,5.0,92,0.00,,,0.00,Wunderground v.1.15,2013-02-17 06:15:00,
2013-02-17 01:25:00,32.2,30.1,29.97,NW,304,3.0,5.0,92,0.00,,,0.00,Wunderground v.1.15,2013-02-17 06:25:00,
2013-02-17 01:30:00,32.1,30.3,29.97,West,262,3.0,3.0,93,0.00,,,0.00,Wunderground v.1.15,2013-02-17 06:30:00,
2013-02-17 01:40:00,32.0,30.2,29.97,West,277,3.0,4.0,93,0.00,,,0.00,Wunderground v.1.15,2013-02-17 06:40:00,
2013-02-17 01:50:00,31.9,30.1,29.97,West,268,3.0,3.0,93,0.00,,,0.00,Wunderground v.1.15,2013-02-17 06:50:00,
2013-02-17 02:00:00,31.8,30.0,29.97,West,279,2.0,5.0,93,0.00,,,0.00,Wunderground v.1.15,2013-02-17 07:00:00,
2013-02-17 02:10:00,31.7,29.9,29.98,WNW,285,3.0,3.0,93,0.00,,,0.00,Wunderground v.1.15,2013-02-17 07:10:00,
2013-02-17 02:15:00,31.6,29.8,29.97,West,269,3.0,8.0,93,0.00,,,0.00,Wunderground v.1.15,2013-02-17 07:15:00,
2013-02-17 02:25:00,31.6,29.8,29.97,West,275,2.0,3.0,93,0.00,,,0.00,Wunderground v.1.15,2013-02-17 07:25:00,
2013-02-17 02:35:00,31.5,29.7,29.97,NW,309,2.0,2.0,93,0.00,,,0.00,Wunderground v.1.15,2013-02-17 07:35:00,
2013-02-17 02:40:00,31.4,29.6,29.98,WNW,300,3.0,3.0,93,0.00,,,0.00,Wunderground v.1.15,2013-02-17 07:40:00,
2013-02-17 02:50:00,31.3,29.5,29.98,NW,312,2.0,2.0,93,0.00,,,0.00,Wunderground v.1.15,2013-02-17 07:50:00,
2013-02-17 03:00:00,31.2,29.4,29.98,WNW,302,2.0,2.0,93,0.00,,,0.00,Wunderground v.1.15,2013-02-17 08:00:00,
2013-02-17 03:05:00,31.1,29.3,29.98,West,271,2.0,2.0,93,0.00,,,0.00,Wunderground v.1.15,2013-02-17 08:05:00,
2013-02-17 03:15:00,31.0,28.9,29.98,WNW,294,2.0,3.0,92,0.00,,,0.00,Wunderground v.1.15,2013-02-17 08:15:00,
2013-02-17 03:20:00,31.0,28.9,29.99,WNW,288,2.0,3.0,92,0.00,,,0.00,Wunderground v.1.15,2013-02-17 08:20:00,
2013-02-17 03:30:00,30.9,28.9,29.99,WNW,284,3.0,3.0,92,0.00,,,0.00,Wunderground v.1.15,2013-02-17 08:30:00,
2013-02-17 03:40:00,30.8,28.5,29.99,WNW,301,2.0,3.0,91,0.00,,,0.00,Wunderground v.1.15,2013-02-17 08:40:00,
2013-02-17 03:45:00,30.7,28.4,30.00,West,280,2.0,3.0,91,0.00,,,0.00,Wunderground v.1.15,2013-02-17 08:45:00,
2013-02-17 03:55:00,30.7,28.4,30.00,West,271,3.0,6.0,91,0.00,,,0.00,Wunderground v.1.15,2013-02-17 08:55:00,
2013-02-17 04:00:00,30.6,28.3,30.00,West,274,3.0,3.0,91,0.00,,,0.00,Wunderground v.1.15,2013-02-17 09:00:00,
2013-02-17 04:10:00,30.4,27.8,30.00,West,265,2.0,2.0,90,0.00,,,0.00,Wunderground v.1.15,2013-02-17 09:10:00,
2013-02-17 04:15:00,30.4,28.1,30.00,NW,319,2.0,2.0,91,0.00,,,0.00,Wunderground v.1.15,2013-02-17 09:15:00,
2013-02-17 04:25:00,30.2,27.9,30.01,West,273,2.0,2.0,91,0.00,,,0.00,Wunderground v.1.15,2013-02-17 09:25:00,
2013-02-17 04:35:00,30.1,27.5,30.02,NW,309,2.0,2.0,90,0.00,,,0.00,Wunderground v.1.15,2013-02-17 09:35:00,
2013-02-17 04:45:00,29.9,27.3,30.02,NNW,329,2.0,2.0,90,0.00,,,0.00,Wunderground v.1.15,2013-02-17 09:45:00,
2013-02-17 04:55:00,29.7,27.1,30.02,West,281,2.0,2.0,90,0.00,,,0.00,Wunderground v.1.15,2013-02-17 09:55:00,
2013-02-17 05:05:00,29.6,26.8,30.03,West,268,3.0,3.0,89,0.00,,,0.00,Wunderground v.1.15,2013-02-17 10:05:00,
2013-02-17 05:15:00,29.5,26.7,30.03,WNW,297,2.0,3.0,89,0.00,,,0.00,Wunderground v.1.15,2013-02-17 10:15:00,
2013-02-17 05:25:00,29.3,26.2,30.04,WNW,293,3.0,3.0,88,0.00,,,0.00,Wunderground v.1.15,2013-02-17 10:25:00,
2013-02-17 05:30:00,29.3,26.2,30.04,West,264,3.0,3.0,88,0.00,,,0.00,Wunderground v.1.15,2013-02-17 10:30:00,
2013-02-17 05:40:00,29.1,26.0,30.04,WSW,248,2.0,2.0,88,0.00,,,0.00,Wunderground v.1.15,2013-02-17 10:40:00,
2013-02-17 05:50:00,28.9,25.8,30.04,NW,310,2.0,2.0,88,0.00,,,0.00,Wunderground v.1.15,2013-02-17 10:50:00,
2013-02-17 05:55:00,28.8,25.7,30.05,WSW,250,3.0,3.0,88,0.00,,,0.00,Wunderground v.1.15,2013-02-17 10:55:00,
2013-02-17 06:05:00,28.6,25.2,30.05,WNW,285,2.0,3.0,87,0.00,,,0.00,Wunderground v.1.15,2013-02-17 11:05:00,
2013-02-17 06:10:00,28.5,25.4,30.05,WNW,297,3.0,3.0,88,0.00,,,0.00,Wunderground v.1.15,2013-02-17 11:10:00,
2013-02-17 06:20:00,28.4,25.3,30.05,West,275,2.0,2.0,88,0.00,,,0.00,Wunderground v.1.15,2013-02-17 11:20:00,
2013-02-17 06:30:00,28.3,25.2,30.06,WNW,288,3.0,3.0,88,0.00,,,0.00,Wunderground v.1.15,2013-02-17 11:30:00,
2013-02-17 06:35:00,28.2,25.1,30.06,WNW,284,2.0,3.0,88,0.00,,,0.00,Wunderground v.1.15,2013-02-17 11:35:00,
2013-02-17 06:45:00,28.1,25.0,30.06,WNW,290,2.0,2.0,88,0.00,,,0.00,Wunderground v.1.15,2013-02-17 11:45:00,
2013-02-17 06:50:00,28.0,24.9,30.06,West,271,1.0,1.0,88,0.00,,,0.00,Wunderground v.1.15,2013-02-17 11:50:00,
2013-02-17 07:00:00,27.9,25.1,30.07,West,273,1.0,3.0,89,0.00,,,0.00,Wunderground v.1.15,2013-02-17 12:00:00,
2013-02-17 07:10:00,27.9,25.1,30.08,West,273,2.0,4.0,89,0.00,,,0.00,Wunderground v.1.15,2013-02-17 12:10:00,
2013-02-17 07:20:00,28.0,24.9,30.08,West,265,3.0,3.0,88,0.00,,,0.00,Wunderground v.1.15,2013-02-17 12:20:00,
2013-02-17 07:30:00,28.1,24.7,30.09,West,265,2.0,2.0,87,0.00,,,0.00,Wunderground v.1.15,2013-02-17 12:30:00,
2013-02-17 07:40:00,28.4,25.0,30.09,West,271,2.0,5.0,87,0.00,,,0.00,Wunderground v.1.15,2013-02-17 12:40:00,
2013-02-17 07:45:00,28.5,25.1,30.10,NW,311,2.0,5.0,87,0.00,,,0.00,Wunderground v.1.15,2013-02-17 12:45:00,
2013-02-17 07:55:00,28.8,24.3,30.10,West,267,3.0,4.0,83,0.00,,,0.00,Wunderground v.1.15,2013-02-17 12:55:00,
2013-02-17 08:05:00,29.2,24.7,30.11,West,280,3.0,3.0,83,0.00,,,0.00,Wunderground v.1.15,2013-02-17 13:05:00,
2013-02-17 08:10:00,29.5,24.7,30.11,NW,314,3.0,3.0,82,0.00,,,0.00,Wunderground v.1.15,2013-02-17 13:10:00,
2013-02-17 08:20:00,29.7,24.0,30.11,WNW,292,4.0,4.0,79,0.00,,,0.00,Wunderground v.1.15,2013-02-17 13:20:00,
2013-02-17 08:30:00,29.8,23.8,30.12,NW,311,4.0,6.0,78,0.00,,,0.00,Wunderground v.1.15,2013-02-17 13:30:00,
2013-02-17 08:40:00,30.1,24.4,30.13,West,276,4.0,4.0,79,0.00,,,0.00,Wunderground v.1.15,2013-02-17 13:40:00,
2013-02-17 08:50:00,30.5,24.5,30.13,NW,309,4.0,4.0,78,0.00,,,0.00,Wunderground v.1.15,2013-02-17 13:50:00,
2013-02-17 09:00:00,30.8,24.4,30.14,West,276,4.0,4.0,77,0.00,,,0.00,Wunderground v.1.15,2013-02-17 14:00:00,
2013-02-17 09:05:00,31.2,25.1,30.14,West,274,4.0,4.0,78,0.00,,,0.00,Wunderground v.1.15,2013-02-17 14:05:00,
2013-02-17 09:15:00,31.9,25.5,30.14,NW,319,3.0,3.0,77,0.00,,,0.00,Wunderground v.1.15,2013-02-17 14:15:00,
2013-02-17 09:25:00,32.3,24.9,30.14,WNW,286,3.0,8.0,74,0.00,,,0.00,Wunderground v.1.15,2013-02-17 14:25:00,
2013-02-17 09:30:00,32.4,25.0,30.14,SW,228,4.0,5.0,74,0.00,,,0.01,Wunderground v.1.15,2013-02-17 14:30:00,
2013-02-17 09:40:00,32.8,24.4,30.14,WNW,299,4.0,4.0,71,0.00,,,0.01,Wunderground v.1.15,2013-02-17 14:40:00,
2013-02-17 09:45:00,33.0,24.6,30.14,NW,306,4.0,5.0,71,0.00,,,0.01,Wunderground v.1.15,2013-02-17 14:45:00,
2013-02-17 09:55:00,33.4,24.3,30.14,WNW,292,5.0,5.0,69,0.00,,,0.01,Wunderground v.1.15,2013-02-17 14:55:00,
2013-02-17 10:05:00,33.4,24.3,30.15,WNW,297,6.0,7.0,69,0.00,,,0.01,Wunderground v.1.15,2013-02-17 15:05:00,
2013-02-17 10:10:00,33.7,25.0,30.15,West,281,5.0,6.0,70,0.00,,,0.01,Wunderground v.1.15,2013-02-17 15:10:00,
2013-02-17 10:20:00,34.2,24.7,30.15,WNW,289,5.0,5.0,68,0.00,,,0.01,Wunderground v.1.15,2013-02-17 15:20:00,
2013-02-17 10:25:00,34.6,24.4,30.15,NW,321,5.0,8.0,66,0.00,,,0.01,Wunderground v.1.15,2013-02-17 15:25:00,
2013-02-17 10:35:00,35.0,25.5,30.15,West,269,5.0,5.0,68,0.00,,,0.01,Wunderground v.1.15,2013-02-17 15:35:00,
2013-02-17 10:45:00,35.3,25.4,30.16,NW,305,5.0,6.0,67,0.00,,,0.02,Wunderground v.1.15,2013-02-17 15:45:00,
2013-02-17 10:55:00,35.5,23.8,30.16,NW,315,5.0,5.0,62,0.00,,,0.03,Wunderground v.1.15,2013-02-17 15:55:00,
2013-02-17 11:00:00,35.6,23.9,30.16,NW,306,6.0,6.0,62,0.00,,,0.03,Wunderground v.1.15,2013-02-17 16:00:00,
2013-02-17 11:10:00,35.5,23.8,30.16,NW,304,6.0,6.0,62,0.00,,,0.03,Wunderground v.1.15,2013-02-17 16:10:00,
2013-02-17 11:15:00,36.0,24.2,30.16,West,267,5.0,7.0,62,0.00,,,0.03,Wunderground v.1.15,2013-02-17 16:15:00,
2013-02-17 11:25:00,36.4,23.8,30.15,WNW,288,6.0,6.0,60,0.00,,,0.03,Wunderground v.1.15,2013-02-17 16:25:00,
2013-02-17 11:35:00,36.7,23.7,30.15,NW,312,7.0,7.0,59,0.00,,,0.04,Wunderground v.1.15,2013-02-17 16:35:00,
2013-02-17 11:40:00,36.5,22.7,30.15,WNW,299,7.0,20.0,57,0.00,,,0.04,Wunderground v.1.15,2013-02-17 16:40:00,
2013-02-17 11:50:00,36.5,21.0,30.15,WNW,289,7.0,7.0,53,0.00,,,0.04,Wunderground v.1.15,2013-02-17 16:50:00,
2013-02-17 12:00:00,37.0,23.2,30.15,WNW,288,6.0,6.0,57,0.00,,,0.04,Wunderground v.1.15,2013-02-17 17:00:00,
2013-02-17 12:10:00,37.9,24.8,30.15,West,261,5.0,5.0,59,0.00,,,0.04,Wunderground v.1.15,2013-02-17 17:10:00,
2013-02-17 12:20:00,37.2,22.9,30.15,WSW,254,7.0,8.0,56,0.00,,,0.04,Wunderground v.1.15,2013-02-17 17:20:00,
2013-02-17 12:30:00,37.4,23.1,30.15,West,263,7.0,7.0,56,0.00,,,0.04,Wunderground v.1.15,2013-02-17 17:30:00,
2013-02-17 12:40:00,37.9,22.3,30.15,NW,320,6.0,6.0,53,0.00,,,0.05,Wunderground v.1.15,2013-02-17 17:40:00,
2013-02-17 12:45:00,38.0,22.8,30.15,WSW,250,6.0,6.0,54,0.00,,,0.05,Wunderground v.1.15,2013-02-17 17:45:00,
2013-02-17 12:55:00,38.6,23.4,30.15,West,273,6.0,8.0,54,0.00,,,0.05,Wunderground v.1.15,2013-02-17 17:55:00,
2013-02-17 13:05:00,38.9,21.8,30.15,West,267,6.0,10.0,50,0.00,,,0.05,Wunderground v.1.15,2013-02-17 18:05:00,
2013-02-17 13:10:00,38.5,21.5,30.14,WNW,282,7.0,7.0,50,0.00,,,0.05,Wunderground v.1.15,2013-02-17 18:10:00,
2013-02-17 13:20:00,39.3,20.7,30.14,West,261,7.0,7.0,47,0.00,,,0.05,Wunderground v.1.15,2013-02-17 18:20:00,
2013-02-17 13:30:00,39.0,19.9,30.14,West,277,8.0,8.0,46,0.00,,,0.05,Wunderground v.1.15,2013-02-17 18:30:00,
2013-02-17 13:40:00,38.9,20.4,30.14,West,259,6.0,8.0,47,0.00,,,0.05,Wunderground v.1.15,2013-02-17 18:40:00,
2013-02-17 13:50:00,38.9,20.4,30.14,SSW,213,7.0,7.0,47,0.00,,,0.05,Wunderground v.1.15,2013-02-17 18:50:00,
2013-02-17 14:00:00,39.3,21.2,30.14,West,260,8.0,8.0,48,0.00,,,0.05,Wunderground v.1.15,2013-02-17 19:00:00,
2013-02-17 14:10:00,40.1,21.0,30.14,WNW,302,7.0,7.0,46,0.00,,,0.05,Wunderground v.1.15,2013-02-17 19:10:00,
2013-02-17 14:15:00,39.9,21.3,30.14,NW,325,7.0,7.0,47,0.00,,,0.05,Wunderground v.1.15,2013-02-17 19:15:00,
2013-02-17 14:25:00,40.4,19.1,30.14,West,281,7.0,10.0,42,0.00,,,0.05,Wunderground v.1.15,2013-02-17 19:25:00,
2013-02-17 14:30:00,39.9,19.2,30.14,NW,304,8.0,8.0,43,0.00,,,0.05,Wunderground v.1.15,2013-02-17 19:30:00,
2013-02-17 14:40:00,40.4,19.6,30.14,West,269,7.0,7.0,43,0.00,,,0.05,Wunderground v.1.15,2013-02-17 19:40:00,
2013-02-17 14:50:00,40.5,19.7,30.14,West,280,7.0,7.0,43,0.00,,,0.05,Wunderground v.1.15,2013-02-17 19:50:00,
2013-02-17 15:00:00,40.7,19.9,30.14,West,278,6.0,7.0,43,0.00,,,0.05,Wunderground v.1.15,2013-02-17 20:00:00,
2013-02-17 15:10:00,41.7,21.4,30.14,NW,306,5.0,10.0,44,0.00,,,0.05,Wunderground v.1.15,2013-02-17 20:10:00,
2013-02-17 15:15:00,41.2,20.9,30.14,NNW,331,6.0,10.0,44,0.00,,,0.05,Wunderground v.1.15,2013-02-17 20:15:00,
2013-02-17 15:25:00,41.7,21.4,30.14,NW,311,5.0,8.0,44,0.00,,,0.05,Wunderground v.1.15,2013-02-17 20:25:00,
2013-02-17 15:30:00,41.4,20.5,30.14,West,271,6.0,8.0,43,0.00,,,0.05,Wunderground v.1.15,2013-02-17 20:30:00,
2013-02-17 15:40:00,41.2,20.9,30.15,WNW,303,6.0,6.0,44,0.00,,,0.05,Wunderground v.1.15,2013-02-17 20:40:00,
2013-02-17 15:50:00,41.0,19.6,30.14,NW,307,6.0,6.0,42,0.00,,,0.05,Wunderground v.1.15,2013-02-17 20:50:00,
2013-02-17 15:55:00,40.6,19.8,30.15,WNW,289,7.0,10.0,43,0.00,,,0.05,Wunderground v.1.15,2013-02-17 20:55:00,
2013-02-17 16:05:00,41.1,20.3,30.14,West,277,5.0,7.0,43,0.00,,,0.05,Wunderground v.1.15,2013-02-17 21:05:00,
2013-02-17 16:15:00,41.2,19.8,30.14,WNW,297,5.0,5.0,42,0.00,,,0.05,Wunderground v.1.15,2013-02-17 21:15:00,
2013-02-17 16:25:00,41.3,20.5,30.15,NW,306,5.0,5.0,43,0.00,,,0.05,Wunderground v.1.15,2013-02-17 21:25:00,
2013-02-17 16:35:00,40.9,19.5,30.15,West,277,4.0,9.0,42,0.00,,,0.05,Wunderground v.1.15,2013-02-17 21:35:00,
2013-02-17 16:45:00,40.5,19.7,30.15,West,261,5.0,7.0,43,0.00,,,0.05,Wunderground v.1.15,2013-02-17 21:45:00,
2013-02-17 16:50:00,40.8,20.5,30.15,WNW,296,4.0,5.0,44,0.00,,,0.05,Wunderground v.1.15,2013-02-17 21:50:00,
2013-02-17 17:00:00,40.5,19.2,30.16,West,278,5.0,5.0,42,0.00,,,0.05,Wunderground v.1.15,2013-02-17 22:00:00,
2013-02-17 17:10:00,40.5,19.2,30.16,WNW,289,3.0,3.0,42,0.00,,,0.05,Wunderground v.1.15,2013-02-17 22:10:00,
2013-02-17 17:15:00,40.5,20.3,30.16,WNW,295,3.0,3.0,44,0.00,,,0.05,Wunderground v.1.15,2013-02-17 22:15:00,
2013-02-17 17:25:00,40.2,18.3,30.16,West,277,3.0,3.0,41,0.00,,,0.05,Wunderground v.1.15,2013-02-17 22:25:00,
2013-02-17 17:35:00,39.8,19.1,30.17,West,277,3.0,5.0,43,0.00,,,0.05,Wunderground v.1.15,2013-02-17 22:35:00,
2013-02-17 17:40:00,39.5,19.4,30.17,NW,317,3.0,3.0,44,0.00,,,0.05,Wunderground v.1.15,2013-02-17 22:40:00,
2013-02-17 17:50:00,39.0,20.5,30.18,West,273,2.0,3.0,47,0.00,,,0.05,Wunderground v.1.15,2013-02-17 22:50:00,
2013-02-17 17:55:00,38.7,20.2,30.18,NW,323,2.0,3.0,47,0.00,,,0.05,Wunderground v.1.15,2013-02-17 22:55:00,
2013-02-17 18:05:00,38.2,20.7,30.18,NW,323,1.0,2.0,49,0.00,,,0.05,Wunderground v.1.15,2013-02-17 23:05:00,
2013-02-17 18:15:00,37.6,20.6,30.19,West,278,1.0,2.0,50,0.00,,,0.05,Wunderground v.1.15,2013-02-17 23:15:00,
2013-02-17 18:25:00,37.2,20.2,30.19,West,265,1.0,2.0,50,0.00,,,0.05,Wunderground v.1.15,2013-02-17 23:25:00,
2013-02-17 18:35:00,36.8,20.8,30.19,NW,319,1.0,2.0,52,0.00,,,0.05,Wunderground v.1.15,2013-02-17 23:35:00,
2013-02-17 18:40:00,36.6,20.6,30.19,West,276,0.0,1.0,52,0.00,,,0.05,Wunderground v.1.15,2013-02-17 23:40:00,
2013-02-17 18:50:00,36.0,21.8,30.20,West,276,0.0,0.0,56,0.00,,,0.05,Wunderground v.1.15,2013-02-17 23:50:00,
2013-02-17 18:55:00,35.7,21.9,30.20,West,276,0.0,0.0,57,0.00,,,0.05,Wunderground v.1.15,2013-02-17 23:55:00,
2013-02-17 19:00:00,35.4,22.1,30.20,West,276,0.0,0.0,58,0.00,,,0.05,Wunderground v.1.15,2013-02-18 00:00:00,
2013-02-17 19:05:00,35.1,22.6,30.20,West,276,0.0,0.0,60,0.00,,,0.05,Wunderground v.1.15,2013-02-18 00:05:00,
2013-02-17 19:15:00,34.3,22.6,30.21,West,276,0.0,0.0,62,0.00,,,0.05,Wunderground v.1.15,2013-02-18 00:15:00,
2013-02-17 19:25:00,33.6,23.4,30.21,West,276,0.0,0.0,66,0.00,,,0.05,Wunderground v.1.15,2013-02-18 00:25:00,
2013-02-17 19:35:00,32.9,23.5,30.21,West,276,0.0,0.0,68,0.00,,,0.05,Wunderground v.1.15,2013-02-18 00:35:00,
2013-02-17 19:45:00,32.1,23.4,30.22,West,276,0.0,0.0,70,0.00,,,0.05,Wunderground v.1.15,2013-02-18 00:45:00,
2013-02-17 19:55:00,31.4,23.1,30.22,West,276,0.0,0.0,71,0.00,,,0.05,Wunderground v.1.15,2013-02-18 00:55:00,
2013-02-17 20:05:00,30.8,22.5,30.23,West,276,0.0,0.0,71,0.00,,,0.05,Wunderground v.1.15,2013-02-18 01:05:00,
2013-02-17 20:10:00,30.6,22.6,30.23,West,276,0.0,0.0,72,0.00,,,0.05,Wunderground v.1.15,2013-02-18 01:10:00,
2013-02-17 20:20:00,30.2,22.9,30.23,West,276,0.0,0.0,74,0.00,,,0.05,Wunderground v.1.15,2013-02-18 01:20:00,
2013-02-17 20:30:00,29.8,23.2,30.24,West,276,0.0,0.0,76,0.00,,,0.05,Wunderground v.1.15,2013-02-18 01:30:00,
2013-02-17 20:40:00,29.4,23.4,30.24,West,276,0.0,0.0,78,0.00,,,0.05,Wunderground v.1.15,2013-02-18 01:40:00,
2013-02-17 20:45:00,29.2,23.2,30.24,West,276,0.0,0.0,78,0.00,,,0.05,Wunderground v.1.15,2013-02-18 01:45:00,
2013-02-17 20:55:00,29.0,23.6,30.24,West,276,0.0,0.0,80,0.00,,,0.05,Wunderground v.1.15,2013-02-18 01:55:00,
2013-02-17 21:05:00,28.9,23.8,30.25,West,276,0.0,0.0,81,0.00,,,0.05,Wunderground v.1.15,2013-02-18 02:05:00,
2013-02-17 21:15:00,28.7,23.6,30.25,West,276,0.0,0.0,81,0.00,,,0.05,Wunderground v.1.15,2013-02-18 02:15:00,
2013-02-17 21:25:00,28.5,23.7,30.25,West,276,0.0,0.0,82,0.00,,,0.05,Wunderground v.1.15,2013-02-18 02:25:00,
2013-02-17 21:30:00,28.4,23.6,30.25,West,276,0.0,0.0,82,0.00,,,0.05,Wunderground v.1.15,2013-02-18 02:30:00,
2013-02-17 21:40:00,28.2,23.1,30.25,West,276,0.0,0.0,81,0.00,,,0.05,Wunderground v.1.15,2013-02-18 02:40:00,
2013-02-17 21:50:00,28.0,22.9,30.26,West,276,0.0,0.0,81,0.00,,,0.05,Wunderground v.1.15,2013-02-18 02:50:00,
2013-02-17 21:55:00,27.9,22.8,30.26,West,276,0.0,0.0,81,0.00,,,0.05,Wunderground v.1.15,2013-02-18 02:55:00,
2013-02-17 22:05:00,27.8,23.0,30.26,West,276,0.0,0.0,82,0.00,,,0.05,Wunderground v.1.15,2013-02-18 03:05:00,
2013-02-17 22:10:00,27.7,22.9,30.26,West,276,0.0,0.0,82,0.00,,,0.05,Wunderground v.1.15,2013-02-18 03:10:00,
2013-02-17 22:15:00,27.8,23.0,30.26,West,276,0.0,0.0,82,0.00,,,0.05,Wunderground v.1.15,2013-02-18 03:15:00,
2013-02-17 22:25:00,27.6,22.8,30.26,West,276,0.0,0.0,82,0.00,,,0.05,Wunderground v.1.15,2013-02-18 03:25:00,
2013-02-17 22:30:00,27.5,23.0,30.26,West,276,0.0,0.0,83,0.00,,,0.05,Wunderground v.1.15,2013-02-18 03:30:00,
2013-02-17 22:40:00,27.5,23.3,30.26,West,276,0.0,0.0,84,0.00,,,0.05,Wunderground v.1.15,2013-02-18 03:40:00,
2013-02-17 22:50:00,27.4,23.5,30.26,West,276,0.0,0.0,85,0.00,,,0.05,Wunderground v.1.15,2013-02-18 03:50:00,
2013-02-17 22:55:00,27.3,23.4,30.26,West,276,0.0,0.0,85,0.00,,,0.05,Wunderground v.1.15,2013-02-18 03:55:00,
2013-02-17 23:05:00,27.1,23.5,30.26,West,276,0.0,0.0,86,0.00,,,0.05,Wunderground v.1.15,2013-02-18 04:05:00,
2013-02-17 23:15:00,27.1,23.7,30.25,West,276,0.0,0.0,87,0.00,,,0.05,Wunderground v.1.15,2013-02-18 04:15:00,
2013-02-17 23:25:00,26.9,23.5,30.26,West,276,0.0,0.0,87,0.00,,,0.05,Wunderground v.1.15,2013-02-18 04:25:00,
2013-02-17 23:35:00,26.7,23.4,30.25,West,276,0.0,0.0,87,0.00,,,0.05,Wunderground v.1.15,2013-02-18 04:35:00,
2013-02-17 23:45:00,26.6,23.5,30.26,West,276,0.0,0.0,88,0.00,,,0.05,Wunderground v.1.15,2013-02-18 04:45:00,
2013-02-17 23:55:00,26.5,23.4,30.26,West,276,0.0,0.0,88,0.00,,,0.05,Wunderground v.1.15,2013-02-18 04:55:00,